Time;durP1;ratioP1;P1;durP2;ratioP2;P2;SDS_P1;SDS_P2;PMS_P1;PMS_P2;Temp;Humidity;BMP_temperature;BMP_pressure;BME280_temperature;BME280_humidity;BME280_pressure;Samples;Min_cycle;Max_cycle;Signal;HPM_P1;HPM_P2
2023/02/08 00:01:25;;;;;;;1.57;1.17;;;;;;;-3.12;97.39;102515.31;5016607;28;20527;-54
2023/02/08 00:03:52;;;;;;;3.50;1.47;;;;;;;-3.20;96.84;102520.84;5016269;28;20471;-54
2023/02/08 00:06:18;;;;;;;1.63;0.97;;;;;;;-3.13;97.79;102512.63;5016330;28;20448;-54
2023/02/08 00:08:45;;;;;;;1.13;1.13;;;;;;;-3.20;96.42;102516.53;5015937;28;20472;-54
2023/02/08 00:11:12;;;;;;;0.80;0.80;;;;;;;-3.07;95.93;102506.09;5016309;28;20503;-54
2023/02/08 00:13:40;;;;;;;2.27;1.10;;;;;;;-3.23;97.58;102516.34;5016284;28;20449;-54
2023/02/08 00:16:08;;;;;;;0.73;0.73;;;;;;;-3.46;96.91;102499.28;5016163;28;20503;-53
2023/02/08 00:18:35;;;;;;;2.73;1.87;;;;;;;-3.49;96.28;102509.50;5015791;28;20977;-54
2023/02/08 00:21:10;;;;;;;1.43;1.43;;;;;;;-3.48;96.89;102505.19;5015950;28;21020;-54
2023/02/08 00:23:36;;;;;;;8.43;1.70;;;;;;;-3.51;96.98;102499.81;5016124;28;20500;-54
2023/02/08 00:26:03;;;;;;;0.47;0.47;;;;;;;-3.52;97.06;102504.09;5016022;28;20990;-54
2023/02/08 00:28:30;;;;;;;0.60;0.60;;;;;;;-3.56;96.50;102509.91;5015850;28;20482;-54
2023/02/08 00:30:57;;;;;;;1.13;0.60;;;;;;;-3.55;96.63;102498.72;5015974;28;20448;-54
2023/02/08 00:33:23;;;;;;;2.43;1.27;;;;;;;-3.61;97.20;102503.50;5016336;28;20506;-54
2023/02/08 00:35:50;;;;;;;3.80;1.20;;;;;;;-3.58;97.25;102508.88;5015681;28;20456;-54
2023/02/08 00:38:16;;;;;;;0.83;0.80;;;;;;;-3.55;97.04;102508.22;5015794;28;20472;-53
2023/02/08 00:40:43;;;;;;;1.03;1.03;;;;;;;-3.53;96.01;102504.91;5015484;28;21015;-54
2023/02/08 00:43:09;;;;;;;0.23;0.20;;;;;;;-3.64;96.68;102504.22;5015518;28;21065;-54
2023/02/08 00:45:35;;;;;;;8.47;2.93;;;;;;;-3.72;96.54;102507.09;5015436;28;20455;-54
2023/02/08 00:48:02;;;;;;;3.23;1.50;;;;;;;-3.58;97.15;102511.50;5013946;28;20472;-54
2023/02/08 00:50:28;;;;;;;4.10;1.83;;;;;;;-3.53;96.68;102509.22;5015436;28;20821;-54
2023/02/08 00:52:55;;;;;;;0.73;0.73;;;;;;;-3.73;97.45;102506.19;5015583;28;20457;-54
2023/02/08 00:55:21;;;;;;;0.43;0.43;;;;;;;-3.67;97.01;102511.81;5014574;28;20463;-54
2023/02/08 00:57:47;;;;;;;0.87;0.87;;;;;;;-3.70;96.74;102510.69;5015600;28;20840;-54
2023/02/08 01:00:14;;;;;;;1.03;0.80;;;;;;;-3.81;97.23;102509.13;5015249;28;20452;-54
2023/02/08 01:02:41;;;;;;;4.63;4.33;;;;;;;-3.84;97.37;102504.59;5014077;28;20956;-54
2023/02/08 01:05:07;;;;;;;0.53;0.53;;;;;;;-3.74;96.97;102509.59;5015149;28;20441;-54
2023/02/08 01:07:37;;;;;;;2.90;2.67;;;;;;;-3.77;97.82;102509.41;5015181;28;20544;-54
2023/02/08 01:10:05;;;;;;;0.60;0.60;;;;;;;-3.85;97.50;102518.38;5015476;28;20453;-54
2023/02/08 01:12:31;;;;;;;5.80;1.37;;;;;;;-3.79;97.06;102504.91;5015067;28;20810;-54
2023/02/08 01:14:58;;;;;;;1.67;1.57;;;;;;;-3.79;97.30;102510.13;5015176;28;20456;-53
2023/02/08 01:17:24;;;;;;;2.60;2.40;;;;;;;-3.80;96.66;102501.44;5015299;28;20481;-54
2023/02/08 01:19:50;;;;;;;6.33;3.70;;;;;;;-3.81;97.17;102506.53;5014742;28;20822;-54
2023/02/08 01:22:17;;;;;;;1.07;1.07;;;;;;;-3.95;96.79;102506.53;5015076;28;20917;-54
2023/02/08 01:24:43;;;;;;;1.30;1.20;;;;;;;-3.92;96.88;102505.81;5014863;28;20827;-54
2023/02/08 01:27:10;;;;;;;3.23;2.93;;;;;;;-3.83;96.85;102496.03;5014789;28;20475;-54
2023/02/08 01:29:36;;;;;;;0.90;0.90;;;;;;;-3.93;97.30;102510.13;5014683;28;20479;-54
2023/02/08 01:32:02;;;;;;;1.23;1.13;;;;;;;-4.09;97.06;102504.72;5014690;28;20448;-54
2023/02/08 01:34:29;;;;;;;1.30;0.70;;;;;;;-4.06;97.95;102502.31;5013830;28;20453;-54
2023/02/08 01:36:55;;;;;;;1.80;1.70;;;;;;;-4.12;97.10;102499.28;5013433;28;20473;-54
2023/02/08 01:39:22;;;;;;;1.00;0.93;;;;;;;-4.03;97.82;102506.81;5014746;28;20456;-54
2023/02/08 01:41:48;;;;;;;9.70;2.70;;;;;;;-4.27;97.22;102500.88;5014602;28;20481;-54
2023/02/08 01:44:16;;;;;;;2.83;2.00;;;;;;;-4.18;97.19;102494.59;5014731;28;20456;-54
2023/02/08 01:46:49;;;;;;;2.40;1.43;;;;;;;-4.23;97.64;102496.00;5014678;28;20456;-54
2023/02/08 01:49:35;;;;;;;0.80;0.80;;;;;;;-4.26;97.24;102487.09;5015764;28;20445;-54
2023/02/08 01:52:13;;;;;;;3.90;1.43;;;;;;;-4.19;96.59;102487.63;5014880;28;20922;-54
2023/02/08 01:54:48;;;;;;;0.20;0.20;;;;;;;-4.32;96.23;102487.59;5014951;28;20448;-54
2023/02/08 01:57:15;;;;;;;1.83;1.73;;;;;;;-4.30;97.14;102483.41;5015101;28;20719;-54
2023/02/08 01:59:48;;;;;;;0.60;0.60;;;;;;;-4.22;97.24;102483.94;5014897;28;20448;-54
2023/02/08 02:02:17;;;;;;;1.80;1.53;;;;;;;-4.35;97.12;102486.50;5015876;28;20891;-54
2023/02/08 02:04:44;;;;;;;0.27;0.20;;;;;;;-4.42;96.94;102477.41;5014859;28;20452;-54
2023/02/08 02:07:12;;;;;;;0.67;0.67;;;;;;;-4.37;96.89;102477.72;5014458;28;20495;-54
2023/02/08 02:09:46;;;;;;;6.30;1.13;;;;;;;-4.31;97.47;102468.63;5014464;28;20453;-54
2023/02/08 02:12:13;;;;;;;4.90;3.20;;;;;;;-4.26;97.45;102464.63;5014153;28;20924;-53
2023/02/08 02:14:41;;;;;;;1.43;1.37;;;;;;;-4.21;96.76;102473.66;5014684;28;20459;-54
2023/02/08 02:17:11;;;;;;;0.40;0.40;;;;;;;-4.12;96.49;102469.84;5030107;22;20540;-54
2023/02/08 02:19:54;;;;;;;0.70;0.70;;;;;;;-4.21;96.17;102473.66;5014039;28;20449;-54
2023/02/08 02:22:30;;;;;;;1.47;1.37;;;;;;;-4.07;96.51;102465.88;5014065;28;20503;-53
2023/02/08 02:25:02;;;;;;;0.87;0.77;;;;;;;-4.05;95.56;102462.56;5014207;28;20869;-53
2023/02/08 02:28:03;;;;;;;0.43;0.43;;;;;;;-4.14;96.31;102472.34;5008963;28;20481;-53
2023/02/08 02:30:59;;;;;;;0.63;0.63;;;;;;;-4.21;96.23;102470.16;4981527;28;20944;-51
2023/02/08 02:33:52;;;;;;;0.50;0.50;;;;;;;-4.27;95.94;102470.63;4987355;28;20451;-53
2023/02/08 02:36:33;;;;;;;0.30;0.30;;;;;;;-4.33;96.69;102469.34;4987315;28;20450;-52
2023/02/08 02:39:23;;;;;;;2.77;2.57;;;;;;;-4.31;96.59;102468.63;4984796;28;20871;-52
2023/02/08 02:45:30;;;;;;;2.23;1.23;;;;;;;-4.47;96.26;102471.91;4987114;28;20828;-53
2023/02/08 02:48:09;;;;;;;0.57;0.57;;;;;;;-4.50;96.86;102476.91;4990653;28;20615;-53
2023/02/08 02:50:54;;;;;;;1.57;0.93;;;;;;;-4.58;97.02;102475.47;4981432;28;20509;-53
2023/02/08 02:53:58;;;;;;;1.03;1.03;;;;;;;-4.57;96.92;102458.22;4973968;28;20521;-53
2023/02/08 02:56:36;;;;;;;2.20;1.17;;;;;;;-4.55;96.59;102465.28;4974055;28;20446;-52
2023/02/08 02:59:05;;;;;;;0.30;0.30;;;;;;;-4.52;97.16;102462.03;4986745;28;20528;-53
2023/02/08 03:01:32;;;;;;;3.20;3.00;;;;;;;-4.65;96.09;102464.59;4982671;28;20489;-52
2023/02/08 03:03:59;;;;;;;0.40;0.40;;;;;;;-4.65;96.47;102468.09;4983019;28;20459;-53
2023/02/08 03:06:32;;;;;;;3.80;0.87;;;;;;;-4.60;97.01;102465.78;5003473;28;20578;-53
2023/02/08 03:09:20;;;;;;;1.13;1.13;;;;;;;-4.59;97.33;102462.41;4979645;28;20484;-53
2023/02/08 03:11:57;;;;;;;1.10;1.10;;;;;;;-4.65;97.36;102456.81;4985844;28;20942;-52
2023/02/08 03:14:34;;;;;;;2.77;0.77;;;;;;;-4.60;97.53;102460.59;4985230;28;20867;-53
2023/02/08 03:17:32;;;;;;;0.67;0.33;;;;;;;-4.67;96.97;102455.78;4989192;28;20457;-53
2023/02/08 03:20:05;;;;;;;0.70;0.70;;;;;;;-4.66;97.11;102461.09;4992300;28;20445;-53
2023/02/08 03:22:50;;;;;;;12.63;1.40;;;;;;;-4.64;96.78;102462.09;4981707;28;21081;-53
2023/02/08 03:25:30;;;;;;;0.40;0.37;;;;;;;-4.56;96.69;102468.69;4979877;28;20461;-53
2023/02/08 03:28:22;;;;;;;5.40;1.30;;;;;;;-4.66;96.58;102465.34;4980166;28;20529;-52
2023/02/08 03:31:01;;;;;;;0.63;0.63;;;;;;;-4.65;97.97;102470.69;4973777;28;20791;-52
2023/02/08 03:33:40;;;;;;;0.20;0.20;;;;;;;-4.57;97.36;102466.00;4986635;28;20462;-53
2023/02/08 03:36:36;;;;;;;0.30;0.30;;;;;;;-4.65;96.77;102468.09;4986453;28;20453;-53
2023/02/08 03:39:08;;;;;;;0.20;0.20;;;;;;;-4.56;96.96;102466.09;4983702;28;20465;-53
2023/02/08 03:41:38;;;;;;;0.33;0.33;;;;;;;-4.61;96.44;102462.28;4979889;28;20567;-53
2023/02/08 03:44:08;;;;;;;1.77;1.67;;;;;;;-4.61;96.16;102472.69;4981089;28;20461;-53
2023/02/08 03:46:40;;;;;;;0.57;0.57;;;;;;;-4.63;96.79;102479.47;4986119;28;20816;-52
2023/02/08 03:49:12;;;;;;;1.10;1.10;;;;;;;-4.51;95.72;102482.00;4986212;28;20465;-53
2023/02/08 03:51:39;;;;;;;0.90;0.90;;;;;;;-4.71;95.80;102484.91;4980789;28;20441;-53
2023/02/08 03:54:11;;;;;;;1.03;1.03;;;;;;;-4.77;95.76;102486.31;4979649;28;20528;-53
2023/02/08 03:56:45;;;;;;;0.30;0.20;;;;;;;-4.62;96.74;102473.47;4984387;28;20485;-53
2023/02/08 03:59:19;;;;;;;0.20;0.20;;;;;;;-4.66;96.68;102473.13;4986172;28;20470;-53
2023/02/08 04:01:56;;;;;;;1.37;0.83;;;;;;;-4.63;96.68;102469.09;4983477;28;20488;-53
2023/02/08 04:04:25;;;;;;;1.63;1.53;;;;;;;-4.58;96.86;102474.56;4979990;28;20448;-53
2023/02/08 04:06:52;;;;;;;0.60;0.60;;;;;;;-4.59;97.37;102471.06;4992577;28;20453;-55
2023/02/08 04:09:18;;;;;;;5.33;1.50;;;;;;;-4.57;97.31;102461.69;4979329;28;20953;-53
2023/02/08 04:11:45;;;;;;;0.27;0.20;;;;;;;-4.59;96.68;102459.81;4986143;28;20508;-53
2023/02/08 04:14:11;;;;;;;1.77;1.67;;;;;;;-4.61;96.48;102454.50;4986498;28;20458;-54
2023/02/08 04:16:38;;;;;;;14.83;2.53;;;;;;;-4.60;96.43;102463.19;4985527;28;20960;-53
2023/02/08 04:19:04;;;;;;;1.23;1.10;;;;;;;-4.43;95.67;102456.53;4985813;28;20509;-53
2023/02/08 04:21:32;;;;;;;0.87;0.87;;;;;;;-4.59;95.26;102458.09;4986571;28;20525;-53
2023/02/08 04:23:58;;;;;;;0.87;0.87;;;;;;;-4.47;95.88;102463.22;4976668;28;20493;-52
2023/02/08 04:26:24;;;;;;;1.77;1.67;;;;;;;-4.72;95.12;102457.19;4989338;28;20976;-51
2023/02/08 04:28:51;;;;;;;2.50;2.40;;;;;;;-4.79;96.30;102459.38;4982996;28;20488;-53
2023/02/08 04:31:17;;;;;;;0.50;0.50;;;;;;;-4.87;96.61;102470.00;4982634;28;20460;-52
2023/02/08 04:33:44;;;;;;;1.20;1.10;;;;;;;-4.84;96.91;102472.78;4983322;28;20472;-53
2023/02/08 04:36:11;;;;;;;2.33;1.97;;;;;;;-4.89;96.40;102469.00;4982871;28;20458;-52
2023/02/08 04:38:37;;;;;;;0.93;0.93;;;;;;;-4.89;96.18;102463.81;4988843;28;20478;-54
2023/02/08 04:41:03;;;;;;;4.93;1.60;;;;;;;-5.03;96.51;102457.69;4989065;28;20457;-52
2023/02/08 04:43:30;;;;;;;0.87;0.87;;;;;;;-4.85;97.53;102455.44;4995667;28;20493;-51
2023/02/08 04:45:56;;;;;;;1.30;1.30;;;;;;;-4.73;96.59;102447.59;4965713;28;20461;-52
2023/02/08 04:48:23;;;;;;;0.20;0.20;;;;;;;-4.91;96.84;102449.84;4995836;28;20468;-53
2023/02/08 04:50:49;;;;;;;0.40;0.40;;;;;;;-4.89;97.17;102450.84;4982651;28;20477;-54
2023/02/08 04:53:16;;;;;;;4.33;1.33;;;;;;;-4.76;97.42;102450.88;4988827;28;20529;-53
2023/02/08 04:55:42;;;;;;;1.27;0.30;;;;;;;-4.75;96.91;102442.31;4989208;28;20934;-53
2023/02/08 04:58:09;;;;;;;2.13;2.13;;;;;;;-4.78;96.04;102449.88;4983140;28;21040;-52
2023/02/08 05:00:35;;;;;;;0.20;0.20;;;;;;;-4.72;96.41;102442.50;4982059;28;20458;-53
2023/02/08 05:03:03;;;;;;;0.50;0.50;;;;;;;-4.82;96.13;102433.19;4988820;28;20557;-56
2023/02/08 05:05:30;;;;;;;0.30;0.30;;;;;;;-4.81;96.33;102439.28;4990580;28;20450;-53
2023/02/08 05:07:56;;;;;;;0.60;0.60;;;;;;;-4.83;95.60;102434.00;4987091;28;20470;-54
2023/02/08 05:10:25;;;;;;;1.43;1.33;;;;;;;-4.80;96.01;102431.63;4988837;28;20457;-53
2023/02/08 05:12:52;;;;;;;0.20;0.20;;;;;;;-4.73;95.53;102443.31;4990889;28;20508;-53
2023/02/08 05:15:18;;;;;;;3.70;1.23;;;;;;;-4.87;94.96;102437.19;4981963;28;20453;-54
2023/02/08 05:17:45;;;;;;;0.70;0.70;;;;;;;-4.89;95.38;102443.06;4994505;28;20493;-54
2023/02/08 05:20:13;;;;;;;0.73;0.70;;;;;;;-5.06;95.07;102439.31;4992471;28;20461;-53
2023/02/08 05:22:39;;;;;;;1.30;1.30;;;;;;;-5.10;95.98;102442.47;4985205;28;20909;-54
2023/02/08 05:25:06;;;;;;;0.43;0.43;;;;;;;-5.18;96.43;102436.78;4964656;28;20449;-55
2023/02/08 05:27:34;;;;;;;0.60;0.60;;;;;;;-5.09;96.90;102437.38;4967656;28;20474;-54
2023/02/08 05:30:00;;;;;;;0.20;0.20;;;;;;;-4.52;97.25;102434.38;4988872;28;20450;-54
2023/02/08 05:32:27;;;;;;;0.83;0.83;;;;;;;-4.62;94.59;102439.75;4985440;28;20500;-54
2023/02/08 05:34:53;;;;;;;4.27;2.47;;;;;;;-4.82;95.49;102445.25;4980980;28;20456;-53
2023/02/08 05:37:20;;;;;;;1.70;1.60;;;;;;;-4.72;96.50;102436.44;4984761;28;20474;-54
2023/02/08 05:39:46;;;;;;;0.47;0.40;;;;;;;-5.07;96.05;102441.03;4988506;28;20450;-54
2023/02/08 05:42:12;;;;;;;3.97;1.43;;;;;;;-4.98;96.04;102437.25;4985038;28;20497;-54
2023/02/08 05:44:39;;;;;;;2.10;0.77;;;;;;;-4.78;97.14;102443.00;4981815;28;20456;-55
2023/02/08 05:47:05;;;;;;;0.87;0.87;;;;;;;-4.74;96.83;102449.28;4987819;28;20449;-54
2023/02/08 05:49:32;;;;;;;0.50;0.50;;;;;;;-4.81;97.12;102447.06;4990814;28;20947;-54
2023/02/08 05:51:58;;;;;;;1.93;1.73;;;;;;;-4.74;97.64;102449.28;4985297;28;20573;-53
2023/02/08 05:54:24;;;;;;;0.40;0.37;;;;;;;-4.66;97.34;102458.50;4981384;28;20450;-53
2023/02/08 05:56:51;;;;;;;5.13;1.67;;;;;;;-4.90;96.28;102451.66;4983720;28;20544;-52
2023/02/08 05:59:17;;;;;;;1.23;1.13;;;;;;;-4.72;97.56;102458.06;4988298;28;20454;-54
2023/02/08 06:01:44;;;;;;;2.63;1.07;;;;;;;-4.72;97.91;102465.84;4986105;28;20458;-54
2023/02/08 06:04:10;;;;;;;1.27;1.17;;;;;;;-4.55;98.40;102457.50;4981482;28;20878;-54
2023/02/08 06:06:37;;;;;;;0.20;0.20;;;;;;;-4.53;98.54;102461.09;4994043;28;20449;-54
2023/02/08 06:09:03;;;;;;;1.67;1.07;;;;;;;-4.46;97.62;102472.81;4976634;28;20486;-54
2023/02/08 06:11:30;;;;;;;1.17;1.03;;;;;;;-4.50;96.61;102473.41;4985921;28;20453;-54
2023/02/08 06:13:56;;;;;;;0.30;0.30;;;;;;;-4.62;97.06;102470.88;4994185;28;20450;-54
2023/02/08 06:16:23;;;;;;;1.07;1.07;;;;;;;-4.40;97.24;102473.19;4982788;28;20459;-54
2023/02/08 06:18:49;;;;;;;0.20;0.20;;;;;;;-4.30;96.21;102464.34;4992120;28;20524;-54
2023/02/08 06:21:15;;;;;;;0.97;0.93;;;;;;;-4.35;96.50;102465.75;4982823;28;20451;-54
2023/02/08 06:23:42;;;;;;;1.90;0.90;;;;;;;-4.41;95.60;102471.41;4987195;28;20494;-54
2023/02/08 06:26:08;;;;;;;0.93;0.93;;;;;;;-4.67;95.53;102471.34;4985890;28;20553;-55
2023/02/08 06:28:35;;;;;;;1.17;1.17;;;;;;;-4.64;95.65;102471.56;4980751;28;20531;-54
2023/02/08 06:31:01;;;;;;;0.37;0.37;;;;;;;-4.80;94.73;102482.56;4982482;28;20458;-54
2023/02/08 06:33:27;;;;;;;0.20;0.10;;;;;;;-4.88;95.46;102475.97;4987325;28;20453;-54
2023/02/08 06:35:54;;;;;;;0.30;0.30;;;;;;;-4.83;95.85;102479.78;4974383;28;20484;-54
2023/02/08 06:38:21;;;;;;;4.27;1.90;;;;;;;-4.77;96.17;102481.13;4986880;28;20825;-54
2023/02/08 06:40:48;;;;;;;0.50;0.50;;;;;;;-4.78;97.35;102481.00;4986184;28;20449;-54
2023/02/08 06:43:15;;;;;;;0.27;0.27;;;;;;;-4.78;97.88;102481.00;4980561;28;20909;-54
2023/02/08 06:45:45;;;;;;;1.33;0.77;;;;;;;-4.64;97.42;102475.06;4981402;28;20450;-54
2023/02/08 06:48:12;;;;;;;4.87;1.17;;;;;;;-4.58;96.81;102487.53;4993003;28;20469;-54
2023/02/08 06:50:38;;;;;;;1.70;1.70;;;;;;;-4.77;96.39;102483.72;4980819;28;20893;-54
2023/02/08 06:53:05;;;;;;;3.03;2.93;;;;;;;-4.71;96.51;102484.91;4986789;28;20811;-54
2023/02/08 06:55:32;;;;;;;0.97;0.97;;;;;;;-4.64;95.94;102484.53;4987113;28;20499;-53
2023/02/08 06:57:58;;;;;;;1.43;1.33;;;;;;;-4.65;96.40;102485.34;4980791;28;20469;-53
2023/02/08 07:00:24;;;;;;;22.07;1.67;;;;;;;-4.68;96.40;102477.31;4979975;28;20906;-54
2023/02/08 07:02:51;;;;;;;1.83;1.67;;;;;;;-4.69;95.67;102475.53;4986396;28;20937;-54
2023/02/08 07:05:18;;;;;;;0.33;0.33;;;;;;;-4.86;96.41;102480.47;4986922;28;20449;-52
2023/02/08 07:07:44;;;;;;;0.57;0.57;;;;;;;-4.79;96.47;102482.72;4986179;28;20473;-54
2023/02/08 07:10:11;;;;;;;0.40;0.40;;;;;;;-4.69;96.53;102475.53;4969731;28;20460;-53
2023/02/08 07:12:37;;;;;;;1.90;1.80;;;;;;;-4.75;95.89;102482.91;4986933;28;20454;-54
2023/02/08 07:15:04;;;;;;;0.30;0.30;;;;;;;-4.84;96.07;102478.88;4980022;28;20455;-55
2023/02/08 07:17:30;;;;;;;3.20;3.00;;;;;;;-4.71;96.38;102475.44;4992342;28;20489;-54
2023/02/08 07:19:56;;;;;;;1.43;1.10;;;;;;;-4.62;96.59;102473.47;4991964;28;20464;-54
2023/02/08 07:22:23;;;;;;;0.30;0.30;;;;;;;-4.63;96.21;102476.88;4981121;28;20547;-54
2023/02/08 07:24:49;;;;;;;2.00;1.90;;;;;;;-4.33;96.61;102479.72;4979922;28;20516;-54
2023/02/08 07:27:16;;;;;;;1.13;1.13;;;;;;;-4.41;95.74;102479.19;4985696;28;20485;-54
2023/02/08 07:29:42;;;;;;;0.53;0.53;;;;;;;-4.21;95.39;102475.34;4986493;28;20454;-54
2023/02/08 07:32:09;;;;;;;1.10;0.77;;;;;;;-4.25;96.63;102462.94;4981008;28;20454;-53
2023/02/08 07:34:36;;;;;;;1.60;1.13;;;;;;;-4.29;97.17;102471.31;4963226;28;20478;-53
2023/02/08 07:37:03;;;;;;;1.77;1.67;;;;;;;-4.27;97.87;102480.09;4985399;28;20450;-54
2023/02/08 07:39:30;;;;;;;0.93;0.93;;;;;;;-4.19;98.14;102471.16;4986485;28;20507;-54
2023/02/08 07:41:57;;;;;;;2.83;1.63;;;;;;;-3.89;98.09;102469.66;4981473;28;20446;-54
2023/02/08 07:44:24;;;;;;;1.23;1.13;;;;;;;-3.91;97.69;102464.34;4980082;28;20454;-53
2023/02/08 07:46:50;;;;;;;0.70;0.70;;;;;;;-3.82;97.61;102461.47;4986447;28;20876;-54
2023/02/08 07:49:17;;;;;;;1.73;1.63;;;;;;;-3.85;96.66;102462.94;4973445;28;20445;-54
2023/02/08 07:51:43;;;;;;;2.40;1.80;;;;;;;-3.65;96.80;102462.53;4982133;28;20480;-54
2023/02/08 07:54:09;;;;;;;0.80;0.77;;;;;;;-3.67;96.88;102457.25;4978271;28;20453;-54
2023/02/08 07:56:36;;;;;;;1.07;1.07;;;;;;;-3.54;95.97;102460.63;4982900;28;20462;-54
2023/02/08 07:59:02;;;;;;;0.50;0.50;;;;;;;-3.43;96.37;102446.59;4983831;28;20491;-54
2023/02/08 08:01:29;;;;;;;2.97;2.77;;;;;;;-3.16;95.96;102450.91;4988192;28;20454;-54
2023/02/08 08:03:55;;;;;;;1.57;1.57;;;;;;;-3.12;95.79;102450.31;4994432;28;20496;-54
2023/02/08 08:06:22;;;;;;;1.33;0.87;;;;;;;-3.10;96.29;102445.19;5007361;28;20449;-54
2023/02/08 08:08:49;;;;;;;1.70;1.60;;;;;;;-2.94;96.61;102452.22;4983284;28;20474;-54
2023/02/08 08:11:17;;;;;;;2.23;0.70;;;;;;;-2.81;96.99;102447.84;4989812;28;21036;-53
2023/02/08 08:13:44;;;;;;;2.50;2.03;;;;;;;-2.70;96.51;102444.19;4993626;28;20450;-54
2023/02/08 08:16:11;;;;;;;5.40;2.20;;;;;;;-2.60;96.62;102455.16;4986017;28;20453;-54
2023/02/08 08:18:38;;;;;;;2.60;1.83;;;;;;;-2.48;96.37;102461.06;5039051;22;20915;-52
2023/02/08 08:21:04;;;;;;;9.60;3.63;;;;;;;-2.50;96.06;102454.88;5055722;28;20951;-53
2023/02/08 08:23:32;;;;;;;1.80;1.77;;;;;;;-2.36;97.06;102458.28;5055484;28;20860;-53
2023/02/08 08:25:59;;;;;;;0.80;0.80;;;;;;;-2.20;96.87;102456.66;5056725;28;20466;-53
2023/02/08 08:28:25;;;;;;;4.47;2.60;;;;;;;-2.15;96.65;102462.16;5052063;28;20476;-53
2023/02/08 08:30:52;;;;;;;5.03;1.80;;;;;;;-2.05;96.04;102461.88;5045575;28;20447;-54
2023/02/08 08:33:19;;;;;;;0.70;0.70;;;;;;;-1.95;95.78;102465.91;5041831;28;20815;-53
2023/02/08 08:35:46;;;;;;;0.67;0.67;;;;;;;-1.75;95.75;102457.50;5045340;28;20455;-53
2023/02/08 08:38:12;;;;;;;4.47;0.93;;;;;;;-1.62;96.35;102452.19;5048603;28;20478;-53
2023/02/08 08:40:38;;;;;;;7.60;2.50;;;;;;;-1.56;96.17;102462.03;5045846;28;20453;-53
2023/02/08 08:43:05;;;;;;;6.33;1.03;;;;;;;-1.32;96.17;102466.00;5041747;28;20514;-53
2023/02/08 08:45:32;;;;;;;1.10;1.07;;;;;;;-1.00;94.77;102457.28;5044860;28;20451;-53
2023/02/08 08:48:00;;;;;;;0.60;0.60;;;;;;;-0.89;95.26;102457.84;5034654;28;20467;-53
2023/02/08 08:50:26;;;;;;;1.10;0.97;;;;;;;-0.51;91.38;102454.63;5046055;28;20458;-53
2023/02/08 08:52:52;;;;;;;2.30;1.17;;;;;;;-0.27;88.44;102451.44;5041572;28;20818;-53
2023/02/08 08:55:19;;;;;;;1.10;1.10;;;;;;;-0.13;87.23;102440.88;5044361;28;20502;-53
2023/02/08 08:57:45;;;;;;;1.37;1.37;;;;;;;0.09;86.87;102448.03;5048027;28;20471;-54
2023/02/08 09:00:12;;;;;;;0.63;0.63;;;;;;;0.17;85.04;102444.09;5046136;28;20488;-52
2023/02/08 09:02:38;;;;;;;0.83;0.80;;;;;;;0.32;85.43;102436.09;5041534;28;20490;-53
2023/02/08 09:05:06;;;;;;;0.80;0.50;;;;;;;0.34;85.06;102433.53;5031544;28;20969;-53
2023/02/08 09:07:33;;;;;;;8.23;0.90;;;;;;;0.44;83.21;102443.63;5046988;28;20831;-52
2023/02/08 09:10:00;;;;;;;0.60;0.47;;;;;;;0.48;82.74;102430.75;5046570;28;20824;-53
2023/02/08 09:12:27;;;;;;;2.07;1.97;;;;;;;0.71;82.34;102437.06;5028759;28;20466;-53
2023/02/08 09:14:53;;;;;;;1.20;1.13;;;;;;;0.72;81.96;102438.84;5047204;28;20451;-52
2023/02/08 09:17:20;;;;;;;1.40;1.13;;;;;;;0.81;82.25;102438.34;5030044;28;20460;-53
2023/02/08 09:19:46;;;;;;;0.83;0.83;;;;;;;0.79;79.14;102435.69;5027534;28;20466;-53
2023/02/08 09:22:13;;;;;;;1.87;0.57;;;;;;;0.74;80.38;102442.44;5047898;28;20501;-52
2023/02/08 09:24:39;;;;;;;19.03;1.93;;;;;;;0.88;78.98;102441.34;5047210;28;20871;-53
2023/02/08 09:27:06;;;;;;;1.03;0.93;;;;;;;1.01;79.25;102434.03;5041061;28;20450;-53
2023/02/08 09:29:33;;;;;;;0.63;0.63;;;;;;;0.91;79.04;102426.59;5041795;28;20566;-53
2023/02/08 09:31:59;;;;;;;1.00;1.00;;;;;;;1.04;79.04;102431.56;5047679;28;20972;-53
2023/02/08 09:34:26;;;;;;;2.43;2.33;;;;;;;1.01;78.17;102434.03;5047321;28;20447;-54
2023/02/08 09:36:53;;;;;;;11.83;1.47;;;;;;;1.15;78.59;102438.16;5040699;28;20446;-53
2023/02/08 09:39:22;;;;;;;2.63;2.43;;;;;;;1.18;77.12;102428.72;5041290;28;20475;-54
2023/02/08 09:41:58;;;;;;;0.30;0.30;;;;;;;1.31;75.70;102431.88;5027853;28;20485;-53
2023/02/08 09:44:46;;;;;;;3.30;1.23;;;;;;;1.21;75.17;102425.34;5040358;28;20853;-53
2023/02/08 09:47:26;;;;;;;2.50;2.40;;;;;;;1.38;75.71;102424.38;5043143;28;20443;-53
2023/02/08 09:50:00;;;;;;;1.43;1.33;;;;;;;1.24;74.95;102430.72;5047051;28;20454;-54
2023/02/08 09:52:54;;;;;;;1.50;1.50;;;;;;;1.29;75.85;102418.72;5047458;28;20481;-53
2023/02/08 09:55:32;;;;;;;1.27;1.27;;;;;;;1.54;76.15;102419.78;5045148;28;20895;-53
2023/02/08 09:58:02;;;;;;;1.13;1.03;;;;;;;1.44;76.11;102418.47;5040210;28;20469;-53
2023/02/08 10:00:50;;;;;;;4.17;2.30;;;;;;;1.65;76.65;102413.28;5040627;28;20455;-53
2023/02/08 10:03:26;;;;;;;4.93;3.57;;;;;;;1.72;75.66;102410.06;5043146;28;20521;-53
2023/02/08 10:05:53;;;;;;;0.60;0.57;;;;;;;1.74;76.68;102406.66;5026853;28;20861;-53
2023/02/08 10:08:19;;;;;;;4.20;3.87;;;;;;;1.72;73.62;102425.78;5042036;28;20838;-53
2023/02/08 10:11:18;;;;;;;1.70;1.70;;;;;;;1.87;74.34;102415.94;5046840;28;20454;-53
2023/02/08 10:13:53;;;;;;;1.17;1.17;;;;;;;1.98;72.83;102426.88;5036066;28;20466;-53
2023/02/08 10:16:41;;;;;;;1.83;1.70;;;;;;;1.89;72.64;102422.13;5044550;28;20450;-53
2023/02/08 10:19:38;;;;;;;2.83;1.30;;;;;;;2.06;73.31;102415.88;5027771;28;20478;-53
2023/02/08 10:22:23;;;;;;;1.40;1.40;;;;;;;2.07;72.28;102425.53;5017957;28;20444;-53
2023/02/08 10:25:08;;;;;;;0.63;0.63;;;;;;;1.98;71.22;102426.88;5046915;28;20544;-53
2023/02/08 10:27:43;;;;;;;2.03;1.67;;;;;;;1.97;70.13;102423.34;5043895;28;20450;-53
2023/02/08 10:30:34;;;;;;;7.20;0.93;;;;;;;2.14;71.26;102420.50;5040241;28;20457;-52
2023/02/08 10:33:19;;;;;;;2.90;2.30;;;;;;;2.16;69.53;102421.47;5038486;28;20831;-53
2023/02/08 10:35:48;;;;;;;7.93;1.40;;;;;;;2.17;69.41;102426.75;5043903;28;20974;-53
2023/02/08 10:38:27;;;;;;;4.00;1.67;;;;;;;2.38;69.93;102429.34;5039695;28;20474;-53
2023/02/08 10:41:20;;;;;;;2.40;2.17;;;;;;;2.54;68.74;102415.97;5037161;28;20455;-53
2023/02/08 10:44:01;;;;;;;6.00;2.60;;;;;;;2.56;68.12;102410.78;5043381;28;20528;-52
2023/02/08 10:46:36;;;;;;;1.67;1.57;;;;;;;2.70;67.72;102414.84;5039567;28;20927;-53
2023/02/08 10:49:32;;;;;;;0.93;0.90;;;;;;;2.65;67.55;102405.91;5026675;28;20471;-53
2023/02/08 10:51:58;;;;;;;2.27;2.17;;;;;;;2.68;67.32;102412.16;5034559;28;20439;-53
2023/02/08 10:54:25;;;;;;;0.70;0.70;;;;;;;2.74;66.82;102406.25;5039267;28;20447;-53
2023/02/08 10:57:01;;;;;;;3.67;1.80;;;;;;;2.50;65.94;102395.72;5042407;28;20447;-53
2023/02/08 10:59:45;;;;;;;3.17;3.07;;;;;;;2.51;64.94;102393.97;5046342;28;20872;-53
2023/02/08 11:02:21;;;;;;;1.13;1.13;;;;;;;2.64;66.71;102386.63;5034155;28;20447;-53
2023/02/08 11:05:12;;;;;;;0.80;0.80;;;;;;;2.74;66.35;102381.69;5052594;28;20859;-53
2023/02/08 11:07:39;;;;;;;1.50;0.50;;;;;;;2.87;65.82;102384.84;5039029;28;20830;-53
2023/02/08 11:10:13;;;;;;;9.40;1.27;;;;;;;2.89;65.40;102377.03;5039625;28;20963;-53
2023/02/08 11:12:41;;;;;;;4.70;2.30;;;;;;;3.06;66.22;102367.13;5034124;28;20454;-53
2023/02/08 11:15:22;;;;;;;4.00;0.97;;;;;;;3.21;65.41;102365.03;5039393;28;20471;-53
2023/02/08 11:17:54;;;;;;;25.40;3.33;;;;;;;3.33;65.08;102369.81;5043121;28;20541;-53
2023/02/08 11:20:37;;;;;;;1.50;1.07;;;;;;;3.07;64.94;102369.81;5049906;28;20443;-53
2023/02/08 11:23:16;;;;;;;1.87;1.30;;;;;;;3.23;65.37;102369.50;5040097;28;20447;-53
2023/02/08 11:25:42;;;;;;;4.90;1.20;;;;;;;3.35;64.56;102365.50;5044746;28;20451;-53
2023/02/08 11:28:29;;;;;;;3.50;1.57;;;;;;;3.37;64.01;102363.81;5046057;28;20474;-53
2023/02/08 11:31:00;;;;;;;2.03;1.87;;;;;;;3.17;63.15;102361.41;5042812;28;20447;-53
2023/02/08 11:33:30;;;;;;;1.13;1.13;;;;;;;3.42;63.49;102355.25;5038774;28;20511;-53
2023/02/08 11:36:06;;;;;;;1.33;1.23;;;;;;;3.47;64.88;102364.19;5040647;28;20475;-53
2023/02/08 11:38:34;;;;;;;5.07;1.20;;;;;;;3.40;62.21;102356.94;5046003;28;20475;-53
2023/02/08 11:41:04;;;;;;;4.60;1.03;;;;;;;3.66;63.09;102351.66;5046193;28;20451;-54
2023/02/08 11:43:34;;;;;;;3.43;2.40;;;;;;;3.39;62.12;102363.03;5039574;28;20482;-53
2023/02/08 11:46:03;;;;;;;1.17;1.17;;;;;;;3.50;62.24;102345.91;5038992;28;20447;-53